createdAt,value
2022-12-18T00:01:15.089Z,4.70
2022-12-18T00:03:42.058Z,5.43
2022-12-18T00:06:09.539Z,5.25
2022-12-18T00:08:36.592Z,5.43
2022-12-18T00:11:11.491Z,4.20
2022-12-18T00:13:38.621Z,5.53
2022-12-18T00:16:07.912Z,5.20
2022-12-18T00:18:34.839Z,4.97
2022-12-18T00:21:04.072Z,4.93
2022-12-18T00:23:31.669Z,5.40
2022-12-18T00:26:07.662Z,5.60
2022-12-18T00:28:34.935Z,6.23
2022-12-18T00:31:15.593Z,5.43
2022-12-18T00:33:42.814Z,5.65
2022-12-18T00:36:21.150Z,5.45
2022-12-18T00:38:48.548Z,4.72
2022-12-18T00:41:40.162Z,5.25
2022-12-18T00:44:08.854Z,4.63
2022-12-18T00:46:35.481Z,4.88
2022-12-18T00:49:02.166Z,4.85
2022-12-18T00:51:28.850Z,5.28
2022-12-18T00:53:55.563Z,5.38
2022-12-18T00:56:22.260Z,5.63
2022-12-18T00:58:49.220Z,4.82
2022-12-18T01:01:16.285Z,5.38
2022-12-18T01:03:43.298Z,5.22
2022-12-18T01:06:12.759Z,5.25
2022-12-18T01:08:40.314Z,4.88
2022-12-18T01:11:12.851Z,5.72
2022-12-18T01:13:40.885Z,5.07
2022-12-18T01:16:08.252Z,6.53
2022-12-18T01:18:34.878Z,7.05
2022-12-18T01:21:01.614Z,5.70
2022-12-18T01:23:28.225Z,5.47
2022-12-18T01:25:54.870Z,6.72
2022-12-18T01:28:21.536Z,5.85
2022-12-18T01:30:48.150Z,6.45
2022-12-18T01:33:14.799Z,6.25
2022-12-18T01:35:43.281Z,6.85
2022-12-18T01:38:10.062Z,6.75
2022-12-18T01:40:37.021Z,6.00
2022-12-18T01:43:03.756Z,6.90
2022-12-18T01:45:32.042Z,6.70
2022-12-18T01:48:09.752Z,7.10
2022-12-18T01:50:36.303Z,6.47
2022-12-18T01:53:20.100Z,7.20
2022-12-18T01:55:51.462Z,7.28
2022-12-18T01:58:20.133Z,6.88
2022-12-18T02:00:47.339Z,6.45
2022-12-18T02:03:14.502Z,6.63
2022-12-18T02:06:03.110Z,7.53
2022-12-18T02:08:43.167Z,7.78
2022-12-18T02:11:34.195Z,8.05
2022-12-18T02:14:29.308Z,6.38
2022-12-18T02:17:18.169Z,8.00
2022-12-18T02:19:56.711Z,7.60
2022-12-18T02:22:47.993Z,7.32
2022-12-18T02:25:22.588Z,7.20
2022-12-18T02:27:51.791Z,7.15
2022-12-18T02:30:20.088Z,6.88
2022-12-18T02:32:52.551Z,7.35
2022-12-18T02:35:26.802Z,6.65
2022-12-18T02:37:55.029Z,7.80
2022-12-18T02:40:24.625Z,7.20
2022-12-18T02:42:51.366Z,7.45
2022-12-18T02:45:18.132Z,7.25
2022-12-18T02:47:48.475Z,7.72
2022-12-18T02:50:37.048Z,8.05
2022-12-18T02:53:23.250Z,7.97
2022-12-18T02:55:58.673Z,7.90
2022-12-18T02:58:43.300Z,9.45
2022-12-18T03:01:21.182Z,7.53
2022-12-18T03:03:55.863Z,8.10
2022-12-18T03:06:26.399Z,8.70
2022-12-18T03:08:59.377Z,7.90
2022-12-18T03:11:47.333Z,9.10
2022-12-18T03:14:16.460Z,8.13
2022-12-18T03:16:45.044Z,10.43
2022-12-18T03:19:18.123Z,9.55
2022-12-18T03:21:48.805Z,8.60
2022-12-18T03:24:18.081Z,9.57
2022-12-18T03:26:49.015Z,8.52
2022-12-18T03:29:43.593Z,10.23
2022-12-18T03:32:19.815Z,8.90
2022-12-18T03:34:50.516Z,10.50
2022-12-18T03:37:18.404Z,9.00
2022-12-18T03:39:45.026Z,10.45
2022-12-18T03:42:34.124Z,10.68
2022-12-18T03:45:13.621Z,10.75
2022-12-18T03:47:59.773Z,9.85
2022-12-18T03:50:55.706Z,9.43
2022-12-18T03:53:52.488Z,10.63
2022-12-18T03:56:20.881Z,10.43
2022-12-18T03:58:49.771Z,10.02
2022-12-18T04:01:19.093Z,10.27
2022-12-18T04:03:49.238Z,11.05
2022-12-18T04:06:17.903Z,12.18
2022-12-18T04:08:45.602Z,12.35
2022-12-18T04:11:13.083Z,13.88
2022-12-18T04:13:40.742Z,12.45
2022-12-18T04:16:08.060Z,13.68
2022-12-18T04:18:35.064Z,12.38
2022-12-18T04:21:02.249Z,12.18
2022-12-18T04:23:29.330Z,13.90
2022-12-18T04:25:56.097Z,12.90
2022-12-18T04:28:22.869Z,14.10
2022-12-18T04:30:49.835Z,13.13
2022-12-18T04:33:19.325Z,12.20
2022-12-18T04:35:45.952Z,12.10
2022-12-18T04:38:12.599Z,13.30
2022-12-18T04:40:39.744Z,12.38
2022-12-18T04:43:08.146Z,12.20
2022-12-18T04:45:34.816Z,12.98
2022-12-18T04:48:03.057Z,12.63
2022-12-18T04:50:30.145Z,10.82
2022-12-18T04:52:56.780Z,12.80
2022-12-18T04:55:26.145Z,12.32
2022-12-18T04:57:52.796Z,12.45
2022-12-18T05:00:19.561Z,12.02
2022-12-18T05:02:46.515Z,13.00
2022-12-18T05:05:13.575Z,13.02
2022-12-18T05:07:40.264Z,12.23
2022-12-18T05:10:09.278Z,12.27
2022-12-18T05:12:57.174Z,12.35
2022-12-18T05:15:23.986Z,12.20
2022-12-18T05:17:50.637Z,13.07
2022-12-18T05:20:17.449Z,13.20
2022-12-18T05:22:44.057Z,10.95
2022-12-18T05:25:10.866Z,13.93
2022-12-18T05:27:37.442Z,13.13
2022-12-18T05:30:04.569Z,13.05
2022-12-18T05:32:31.188Z,12.63
2022-12-18T05:34:58.294Z,14.38
2022-12-18T05:37:24.889Z,14.50
2022-12-18T05:39:51.522Z,13.70
2022-12-18T05:42:18.235Z,12.82
2022-12-18T05:44:45.381Z,13.40
2022-12-18T05:47:11.995Z,12.55
2022-12-18T05:49:38.603Z,12.18
2022-12-18T05:52:05.348Z,13.70
2022-12-18T05:54:32.121Z,13.15
2022-12-18T05:56:59.097Z,11.75
2022-12-18T05:59:25.862Z,12.18
2022-12-18T06:01:52.705Z,13.75
2022-12-18T06:04:19.399Z,14.15
2022-12-18T06:06:46.018Z,12.93
2022-12-18T06:09:12.947Z,14.95
2022-12-18T06:11:40.099Z,13.30
2022-12-18T06:14:07.606Z,15.25
2022-12-18T06:16:34.311Z,13.00
2022-12-18T06:19:02.375Z,14.15
2022-12-18T06:21:30.037Z,14.75
2022-12-18T06:23:57.265Z,16.83
2022-12-18T06:26:28.021Z,15.30
2022-12-18T06:28:55.076Z,13.52
2022-12-18T06:31:21.799Z,12.82
2022-12-18T06:33:48.460Z,13.73
2022-12-18T06:36:15.353Z,12.30
2022-12-18T06:38:44.037Z,13.68
2022-12-18T06:41:17.436Z,14.10
2022-12-18T06:43:44.799Z,12.32
2022-12-18T06:46:12.409Z,13.48
2022-12-18T06:48:39.535Z,13.70
2022-12-18T06:51:06.230Z,13.65
2022-12-18T06:53:33.672Z,12.75
2022-12-18T06:56:09.524Z,12.52
2022-12-18T07:01:06.094Z,15.15
2022-12-18T07:03:33.277Z,12.77
2022-12-18T07:05:59.882Z,12.63
2022-12-18T07:08:26.940Z,12.88
2022-12-18T07:10:56.470Z,12.82
2022-12-18T07:13:23.804Z,12.93
2022-12-18T07:15:50.762Z,12.68
2022-12-18T07:18:17.375Z,12.88
2022-12-18T07:20:44.020Z,12.20
2022-12-18T07:23:10.626Z,12.25
2022-12-18T07:25:37.991Z,13.00
2022-12-18T07:28:05.069Z,11.40
2022-12-18T07:30:31.770Z,11.27
2022-12-18T07:32:58.402Z,10.52
2022-12-18T07:35:25.560Z,12.40
2022-12-18T07:37:52.448Z,12.15
2022-12-18T07:40:19.196Z,11.07
2022-12-18T07:42:45.954Z,10.43
2022-12-18T07:45:12.638Z,12.25
2022-12-18T07:47:39.302Z,10.75
2022-12-18T07:50:06.784Z,9.25
2022-12-18T07:52:33.473Z,11.48
2022-12-18T07:55:00.721Z,10.82
2022-12-18T07:57:49.563Z,9.98
2022-12-18T08:00:14.789Z,10.88
2022-12-18T08:02:41.538Z,9.55
2022-12-18T08:05:09.417Z,10.98
2022-12-18T08:07:36.047Z,9.35
2022-12-18T08:10:02.781Z,10.27
2022-12-18T08:12:30.818Z,10.52
2022-12-18T08:14:57.448Z,10.25
2022-12-18T08:17:24.321Z,10.52
2022-12-18T08:19:50.922Z,9.68
2022-12-18T08:22:17.566Z,9.77
2022-12-18T08:24:44.244Z,8.80
2022-12-18T08:27:29.025Z,9.25
2022-12-18T08:29:57.117Z,10.68
2022-12-18T08:32:24.417Z,9.75
2022-12-18T08:34:51.050Z,7.07
2022-12-18T08:37:17.671Z,9.30
2022-12-18T08:39:44.379Z,7.38
2022-12-18T08:42:29.645Z,8.50
2022-12-18T08:44:56.252Z,8.45
2022-12-18T08:47:22.862Z,9.35
2022-12-18T08:49:49.457Z,8.95
2022-12-18T08:52:16.096Z,9.88
2022-12-18T08:54:42.674Z,8.93
2022-12-18T08:57:09.426Z,9.60
2022-12-18T08:59:36.234Z,8.05
2022-12-18T09:02:03.226Z,8.65
2022-12-18T09:04:30.146Z,10.13
2022-12-18T09:06:56.829Z,8.60
2022-12-18T09:09:23.486Z,8.80
2022-12-18T09:11:50.078Z,7.38
2022-12-18T09:14:16.722Z,8.25
2022-12-18T09:16:43.841Z,7.97
2022-12-18T09:19:11.268Z,7.95
2022-12-18T09:21:38.012Z,8.18
2022-12-18T09:24:08.785Z,9.13
2022-12-18T09:26:35.832Z,8.18
2022-12-18T09:29:03.724Z,7.65
2022-12-18T09:31:30.336Z,9.57
2022-12-18T09:33:57.747Z,8.75
2022-12-18T09:36:24.384Z,9.02
2022-12-18T09:38:51.052Z,7.97
2022-12-18T09:41:47.088Z,7.93
2022-12-18T09:44:13.683Z,8.57
2022-12-18T09:46:47.119Z,8.15
2022-12-18T09:49:17.683Z,8.30
2022-12-18T09:51:52.467Z,8.43
2022-12-18T09:54:28.206Z,8.50
2022-12-18T09:56:55.666Z,8.73
2022-12-18T09:59:31.841Z,7.97
2022-12-18T10:01:58.680Z,7.03
2022-12-18T10:04:31.673Z,7.05
2022-12-18T10:07:08.938Z,8.38
2022-12-18T10:09:43.442Z,8.38
2022-12-18T10:12:48.383Z,8.73
2022-12-18T10:15:25.547Z,8.27
2022-12-18T10:18:27.950Z,8.55
2022-12-18T10:21:01.263Z,8.18
2022-12-18T10:23:41.416Z,8.48
2022-12-18T10:26:13.620Z,8.40
2022-12-18T10:28:43.377Z,7.45
2022-12-18T10:31:25.075Z,8.55
2022-12-18T10:33:54.780Z,7.85
2022-12-18T10:36:24.915Z,9.13
2022-12-18T10:38:52.178Z,8.00
2022-12-18T10:41:19.587Z,7.88
2022-12-18T10:43:48.557Z,7.45
2022-12-18T10:46:20.779Z,8.90
2022-12-18T10:48:47.434Z,8.48
2022-12-18T10:51:34.600Z,7.75
2022-12-18T10:54:19.289Z,6.65
2022-12-18T10:56:46.698Z,8.40
2022-12-18T10:59:16.215Z,6.70
2022-12-18T11:02:01.197Z,8.82
2022-12-18T11:04:30.970Z,8.73
2022-12-18T11:07:08.766Z,8.25
2022-12-18T11:09:37.560Z,8.00
2022-12-18T11:12:20.331Z,7.53
2022-12-18T11:14:49.978Z,7.80
2022-12-18T11:17:31.919Z,8.63
2022-12-18T11:20:19.935Z,7.10
2022-12-18T11:23:00.683Z,7.95
2022-12-18T11:25:33.152Z,8.15
2022-12-18T11:28:04.179Z,9.90
2022-12-18T11:30:37.792Z,9.10
2022-12-18T11:33:11.356Z,9.93
2022-12-18T11:35:47.155Z,8.38
2022-12-18T11:38:19.895Z,9.05
2022-12-18T11:40:53.070Z,8.32
2022-12-18T11:43:34.890Z,8.95
2022-12-18T11:46:19.564Z,9.25
2022-12-18T11:49:07.703Z,8.02
2022-12-18T11:51:50.730Z,8.93
2022-12-18T11:54:18.257Z,8.93
2022-12-18T11:56:56.515Z,7.88
2022-12-18T11:59:34.052Z,8.65
2022-12-18T12:04:48.659Z,9.07
2022-12-18T12:08:14.012Z,8.27
2022-12-18T12:11:13.413Z,9.70
2022-12-18T12:14:14.273Z,8.38
2022-12-18T12:17:07.121Z,8.23
2022-12-18T12:19:54.763Z,9.93
2022-12-18T12:22:44.321Z,8.93
2022-12-18T12:25:38.048Z,8.85
2022-12-18T12:28:07.387Z,9.55
2022-12-18T12:30:58.585Z,9.32
2022-12-18T12:33:53.201Z,10.50
2022-12-18T12:36:29.077Z,8.65
2022-12-18T12:39:02.174Z,8.85
2022-12-18T12:41:52.989Z,9.93
2022-12-18T12:44:28.186Z,8.95
2022-12-18T12:46:59.987Z,8.52
2022-12-18T12:49:30.186Z,8.63
2022-12-18T12:52:13.506Z,8.40
2022-12-18T12:54:40.881Z,9.05
2022-12-18T12:57:17.591Z,9.45
2022-12-18T13:00:11.383Z,8.85
2022-12-18T13:03:05.857Z,9.75
2022-12-18T13:05:44.109Z,9.43
2022-12-18T13:08:22.674Z,8.75
2022-12-18T13:11:11.052Z,9.73
2022-12-18T13:13:54.421Z,9.02
2022-12-18T13:16:26.719Z,9.52
2022-12-18T13:18:59.697Z,9.63
2022-12-18T13:21:34.848Z,8.40
2022-12-18T13:24:25.976Z,10.18
2022-12-18T13:26:53.132Z,8.57
2022-12-18T13:29:52.863Z,10.00
2022-12-18T13:32:27.592Z,10.63
2022-12-18T13:35:19.176Z,9.73
2022-12-18T13:37:55.278Z,9.10
2022-12-18T13:40:39.892Z,9.40
2022-12-18T13:43:18.760Z,9.25
2022-12-18T13:45:50.968Z,11.35
2022-12-18T13:48:24.150Z,10.07
2022-12-18T13:50:59.784Z,9.25
2022-12-18T13:53:34.199Z,8.57
2022-12-18T13:56:01.447Z,8.20
2022-12-18T13:58:28.134Z,9.13
2022-12-18T14:00:54.812Z,8.23
2022-12-18T14:03:25.191Z,7.53
2022-12-18T14:06:02.273Z,7.70
2022-12-18T14:08:36.124Z,7.55
2022-12-18T14:11:05.325Z,7.93
2022-12-18T14:13:36.216Z,7.45
2022-12-18T14:16:05.377Z,7.68
2022-12-18T14:18:32.136Z,6.93
2022-12-18T14:21:00.671Z,6.97
2022-12-18T14:23:42.226Z,5.55
2022-12-18T14:26:30.484Z,4.97
2022-12-18T14:28:59.098Z,6.05
2022-12-18T14:31:28.092Z,7.07
2022-12-18T14:33:55.205Z,6.40
2022-12-18T14:36:24.546Z,6.72
2022-12-18T14:38:55.484Z,6.85
2022-12-18T14:41:23.532Z,6.15
2022-12-18T14:43:54.934Z,6.20
2022-12-18T14:46:33.872Z,5.72
2022-12-18T14:49:04.437Z,6.68
2022-12-18T14:51:33.862Z,4.72
2022-12-18T14:54:10.857Z,5.22
2022-12-18T14:56:43.694Z,5.43
2022-12-18T14:59:23.751Z,5.75
2022-12-18T15:02:00.129Z,6.20
2022-12-18T15:04:42.091Z,6.35
2022-12-18T15:07:25.066Z,5.15
2022-12-18T15:10:16.753Z,5.50
2022-12-18T15:12:49.380Z,5.25
2022-12-18T15:15:40.366Z,4.38
2022-12-18T15:18:11.454Z,5.07
2022-12-18T15:20:51.113Z,4.43
2022-12-18T15:23:23.150Z,4.32
2022-12-18T15:26:01.515Z,5.55
2022-12-18T15:28:37.686Z,4.80
2022-12-18T15:31:14.465Z,5.60
2022-12-18T15:36:14.354Z,5.20
2022-12-18T15:38:41.696Z,4.82
2022-12-18T15:41:24.498Z,4.30
2022-12-18T15:43:53.306Z,4.78
2022-12-18T15:46:23.249Z,4.07
2022-12-18T15:48:55.433Z,4.05
2022-12-18T15:51:35.573Z,4.28
2022-12-18T15:54:04.869Z,4.05
2022-12-18T15:56:50.701Z,3.75
2022-12-18T15:59:20.508Z,4.40
2022-12-18T16:01:50.128Z,3.20
2022-12-18T16:04:21.747Z,3.78
2022-12-18T16:09:36.900Z,3.55
2022-12-18T16:12:04.074Z,2.78
2022-12-18T16:14:31.915Z,3.70
2022-12-18T16:17:01.099Z,3.28
2022-12-18T16:19:28.974Z,3.17
2022-12-18T16:21:57.926Z,3.40
2022-12-18T16:24:32.941Z,3.10
2022-12-18T16:27:01.455Z,3.65
2022-12-18T16:29:29.903Z,2.97
2022-12-18T16:31:58.998Z,2.90
2022-12-18T16:34:29.593Z,3.03
2022-12-18T16:37:05.615Z,2.83
2022-12-18T16:39:35.103Z,2.88
2022-12-18T16:42:05.297Z,3.00
2022-12-18T16:44:34.202Z,3.38
2022-12-18T16:47:03.256Z,2.47
2022-12-18T16:49:30.902Z,2.15
2022-12-18T16:51:57.927Z,2.85
2022-12-18T16:54:25.236Z,2.85
2022-12-18T16:56:52.324Z,2.60
2022-12-18T16:59:19.413Z,2.88
2022-12-18T17:01:48.068Z,2.47
2022-12-18T17:04:15.337Z,2.65
2022-12-18T17:06:44.498Z,2.83
2022-12-18T17:09:16.907Z,3.25
2022-12-18T17:11:44.291Z,2.70
2022-12-18T17:14:15.044Z,2.90
2022-12-18T17:16:41.829Z,2.67
2022-12-18T17:19:13.599Z,3.10
2022-12-18T17:21:45.412Z,3.47
2022-12-18T17:24:12.915Z,3.08
2022-12-18T17:26:40.110Z,3.85
2022-12-18T17:29:06.975Z,3.15
2022-12-18T17:31:34.782Z,2.55
2022-12-18T17:34:03.327Z,3.50
2022-12-18T17:36:33.801Z,3.47
2022-12-18T17:39:02.280Z,2.65
2022-12-18T17:41:30.813Z,2.92
2022-12-18T17:44:09.355Z,3.00
2022-12-18T17:46:36.057Z,2.95
2022-12-18T17:49:03.520Z,3.03
2022-12-18T17:51:31.062Z,2.80
2022-12-18T17:53:57.828Z,3.03
2022-12-18T17:56:25.242Z,3.30
2022-12-18T17:58:52.234Z,2.90
2022-12-18T18:01:21.706Z,3.58
2022-12-18T18:03:51.575Z,3.10
2022-12-18T18:06:20.889Z,3.20
2022-12-18T18:08:48.237Z,3.33
2022-12-18T18:11:36.735Z,3.28
2022-12-18T18:14:05.573Z,3.00
2022-12-18T18:16:34.313Z,2.58
2022-12-18T18:19:03.185Z,3.47
2022-12-18T18:21:30.529Z,3.75
2022-12-18T18:24:04.574Z,3.00
2022-12-18T18:26:32.726Z,2.72
2022-12-18T18:29:00.967Z,3.08
2022-12-18T18:31:30.982Z,3.13
2022-12-18T18:33:58.641Z,3.28
2022-12-18T18:36:25.538Z,2.53
2022-12-18T18:38:52.712Z,3.55
2022-12-18T18:41:20.383Z,3.33
2022-12-18T18:43:46.988Z,2.90
2022-12-18T18:46:15.833Z,3.50
2022-12-18T18:48:43.766Z,2.75
2022-12-18T18:51:20.662Z,2.90
2022-12-18T18:53:50.519Z,2.60
2022-12-18T18:56:50.151Z,2.58
2022-12-18T18:59:06.559Z,2.88
2022-12-18T19:01:33.820Z,2.30
2022-12-18T19:04:03.893Z,2.65
2022-12-18T19:06:31.275Z,2.85
2022-12-18T19:09:01.195Z,2.45
2022-12-18T19:11:46.817Z,2.03
2022-12-18T19:14:15.361Z,2.55
2022-12-18T19:16:43.737Z,2.45
2022-12-18T19:19:10.922Z,2.42
2022-12-18T19:21:38.431Z,2.45
2022-12-18T19:24:06.059Z,2.28
2022-12-18T19:26:32.738Z,2.38
2022-12-18T19:29:07.630Z,1.95
2022-12-18T19:31:36.898Z,1.83
2022-12-18T19:34:08.066Z,1.63
2022-12-18T19:36:37.382Z,1.67
2022-12-18T19:39:10.928Z,2.25
2022-12-18T19:41:37.933Z,2.03
2022-12-18T19:44:07.936Z,2.00
2022-12-18T19:46:36.076Z,1.90
2022-12-18T19:49:06.601Z,2.30
2022-12-18T19:51:33.507Z,2.35
2022-12-18T19:54:01.794Z,2.58
2022-12-18T19:56:33.116Z,2.35
2022-12-18T19:59:00.718Z,2.15
2022-12-18T20:01:28.891Z,1.92
2022-12-18T20:03:57.606Z,2.00
2022-12-18T20:06:35.777Z,2.60
2022-12-18T20:09:05.469Z,1.85
2022-12-18T20:11:41.511Z,2.00
2022-12-18T20:16:37.102Z,2.20
2022-12-18T20:19:05.357Z,2.38
2022-12-18T20:21:31.989Z,2.00
2022-12-18T20:24:00.059Z,3.50
2022-12-18T20:26:27.167Z,2.13
2022-12-18T20:28:54.683Z,2.15
2022-12-18T20:31:22.927Z,2.40
2022-12-18T20:33:50.030Z,1.95
2022-12-18T20:36:25.810Z,1.80
2022-12-18T20:38:57.147Z,2.17
2022-12-18T20:41:26.357Z,2.53
2022-12-18T20:43:58.799Z,1.40
2022-12-18T20:46:25.695Z,2.08
2022-12-18T20:48:52.389Z,1.98
2022-12-18T20:51:20.987Z,2.03
2022-12-18T20:53:48.815Z,1.92
2022-12-18T20:56:22.001Z,2.00
2022-12-18T20:58:55.131Z,1.65
2022-12-18T21:01:23.436Z,1.73
2022-12-18T21:03:51.282Z,2.22
2022-12-18T21:06:20.030Z,2.15
2022-12-18T21:08:47.075Z,1.52
2022-12-18T21:11:38.489Z,1.63
2022-12-18T21:14:12.046Z,1.50
2022-12-18T21:16:40.162Z,1.55
2022-12-18T21:19:08.619Z,1.50
2022-12-18T21:21:38.886Z,1.50
2022-12-18T21:24:07.182Z,1.50
2022-12-18T21:26:33.905Z,1.30
2022-12-18T21:29:03.360Z,1.40
2022-12-18T21:31:32.643Z,1.40
2022-12-18T21:34:01.979Z,1.90
2022-12-18T21:36:30.288Z,1.40
2022-12-18T21:38:58.494Z,1.30
2022-12-18T21:41:44.877Z,1.63
2022-12-18T21:44:13.711Z,1.75
2022-12-18T21:46:44.310Z,1.45
2022-12-18T21:49:14.571Z,1.58
2022-12-18T21:51:41.598Z,1.40
2022-12-18T21:54:08.218Z,1.55
2022-12-18T21:56:57.060Z,1.92
2022-12-18T21:59:29.159Z,1.60
2022-12-18T22:01:58.930Z,1.40
2022-12-18T22:04:26.080Z,1.70
2022-12-18T22:06:53.985Z,1.77
2022-12-18T22:09:22.423Z,1.50
2022-12-18T22:11:50.364Z,2.10
2022-12-18T22:14:20.312Z,1.92
2022-12-18T22:16:47.427Z,1.60
2022-12-18T22:19:14.890Z,1.92
2022-12-18T22:21:45.811Z,1.60
2022-12-18T22:24:21.669Z,1.50
2022-12-18T22:26:49.882Z,1.40
2022-12-18T22:29:40.420Z,1.70
2022-12-18T22:32:09.209Z,1.48
2022-12-18T22:34:38.680Z,1.55
2022-12-18T22:37:05.486Z,1.45
2022-12-18T22:39:32.696Z,1.80
2022-12-18T22:41:59.420Z,1.50
2022-12-18T22:44:26.363Z,1.30
2022-12-18T22:47:05.492Z,1.25
2022-12-18T22:49:35.379Z,1.17
2022-12-18T22:52:03.958Z,1.42
2022-12-18T22:54:30.715Z,1.20
2022-12-18T22:56:57.651Z,1.40
2022-12-18T22:59:24.632Z,1.38
2022-12-18T23:01:54.257Z,1.58
2022-12-18T23:04:28.780Z,1.58
2022-12-18T23:07:00.906Z,1.30
2022-12-18T23:09:27.486Z,1.65
2022-12-18T23:11:54.491Z,1.55
2022-12-18T23:14:21.108Z,1.75
2022-12-18T23:16:47.813Z,2.00
2022-12-18T23:19:16.509Z,1.77
2022-12-18T23:21:43.112Z,2.08
2022-12-18T23:24:10.398Z,1.80
2022-12-18T23:26:37.128Z,1.88
2022-12-18T23:29:04.255Z,2.85
2022-12-18T23:31:33.985Z,1.42
2022-12-18T23:34:02.113Z,1.60
2022-12-18T23:36:30.478Z,1.30
2022-12-18T23:39:01.606Z,1.40
2022-12-18T23:41:31.316Z,1.45
2022-12-18T23:43:59.647Z,1.10
2022-12-18T23:46:36.071Z,1.30
2022-12-18T23:49:04.270Z,1.55
2022-12-18T23:51:33.238Z,1.35
2022-12-18T23:54:01.725Z,1.50
2022-12-18T23:56:29.467Z,2.08
2022-12-18T23:58:56.474Z,1.98
